createdAt,value
2022-08-04T00:00:40.333Z,48.06
2022-08-04T00:04:10.364Z,48.19
2022-08-04T00:08:02.333Z,47.96
2022-08-04T00:11:24.354Z,48.15
2022-08-04T00:14:48.310Z,48.19
2022-08-04T00:18:18.376Z,48.39
2022-08-04T00:21:39.343Z,48.46
2022-08-04T00:25:00.377Z,48.58
2022-08-04T00:28:21.350Z,48.44
2022-08-04T00:31:54.940Z,48.65
2022-08-04T00:35:18.334Z,48.29
2022-08-04T00:38:39.354Z,48.52
2022-08-04T00:42:29.371Z,48.71
2022-08-04T00:46:17.195Z,48.83
2022-08-04T00:49:53.365Z,48.57
2022-08-04T00:53:37.373Z,48.61
2022-08-04T00:57:30.145Z,48.52
2022-08-04T01:00:59.392Z,48.30
2022-08-04T01:04:25.355Z,48.77
2022-08-04T01:08:10.372Z,49.06
2022-08-04T01:12:03.357Z,49.04
2022-08-04T01:15:56.393Z,49.21
2022-08-04T01:19:34.375Z,49.25
2022-08-04T01:23:30.374Z,49.41
2022-08-04T01:27:15.372Z,49.78
2022-08-04T01:30:40.381Z,49.91
2022-08-04T01:34:04.848Z,49.98
2022-08-04T01:37:32.385Z,49.95
2022-08-04T01:40:55.369Z,50.09
2022-08-04T01:44:18.400Z,50.25
2022-08-04T01:47:43.411Z,50.28
2022-08-04T01:51:06.348Z,50.42
2022-08-04T01:54:31.398Z,50.44
2022-08-04T01:57:57.371Z,50.35
2022-08-04T02:01:20.450Z,50.38
2022-08-04T02:04:41.400Z,50.59
2022-08-04T02:08:21.438Z,50.51
2022-08-04T02:11:36.402Z,50.59
2022-08-04T02:15:09.392Z,50.50
2022-08-04T02:18:42.422Z,50.36
2022-08-04T02:22:16.379Z,50.30
2022-08-04T02:25:39.383Z,50.01
2022-08-04T02:29:01.372Z,49.85
2022-08-04T02:32:34.421Z,49.97
2022-08-04T02:35:59.501Z,49.91
2022-08-04T02:39:25.614Z,49.68
2022-08-04T02:42:47.361Z,49.77
2022-08-04T02:46:18.015Z,49.73
2022-08-04T02:49:40.627Z,49.69
2022-08-04T02:53:09.922Z,49.66
2022-08-04T02:56:33.371Z,49.40
2022-08-04T03:00:27.412Z,49.31
2022-08-04T03:04:06.384Z,49.23
2022-08-04T03:07:52.376Z,49.10
2022-08-04T03:11:39.421Z,48.88
2022-08-04T03:15:27.435Z,48.68
2022-08-04T03:19:23.380Z,48.24
2022-08-04T03:23:18.625Z,48.03
2022-08-04T03:26:48.379Z,47.47
2022-08-04T03:30:19.417Z,47.30
2022-08-04T03:34:08.381Z,47.15
2022-08-04T03:37:46.385Z,47.05
2022-08-04T03:41:54.961Z,47.21
2022-08-04T03:45:38.453Z,46.93
2022-08-04T03:49:19.376Z,46.56
2022-08-04T03:53:04.449Z,46.42
2022-08-04T03:57:03.391Z,46.26
2022-08-04T04:00:44.439Z,46.07
2022-08-04T04:04:11.411Z,45.75
2022-08-04T04:08:13.802Z,45.51
2022-08-04T04:12:10.426Z,45.04
2022-08-04T04:16:08.393Z,44.94
2022-08-04T04:20:06.523Z,44.95
2022-08-04T04:23:46.474Z,44.86
2022-08-04T04:27:20.579Z,44.62
2022-08-04T04:30:55.485Z,44.39
2022-08-04T04:34:33.495Z,44.42
2022-08-04T04:38:09.407Z,44.04
2022-08-04T04:41:48.452Z,44.00
2022-08-04T04:45:33.419Z,44.03
2022-08-04T04:49:25.507Z,43.69
2022-08-04T04:52:55.426Z,43.29
2022-08-04T04:56:32.440Z,42.89
2022-08-04T05:00:02.471Z,42.79
2022-08-04T05:03:55.437Z,42.36
2022-08-04T05:07:37.402Z,42.43
2022-08-04T05:11:17.430Z,41.89
2022-08-04T05:14:43.393Z,41.74
2022-08-04T05:18:07.425Z,41.38
2022-08-04T05:21:55.469Z,41.83
2022-08-04T05:25:31.478Z,41.59
2022-08-04T05:28:57.451Z,41.12
2022-08-04T05:32:28.440Z,40.84
2022-08-04T05:36:23.442Z,40.82
2022-08-04T05:39:43.486Z,40.78
2022-08-04T05:43:10.439Z,40.52
2022-08-04T05:46:32.432Z,40.46
2022-08-04T05:50:01.501Z,40.26
2022-08-04T05:53:24.415Z,39.89
2022-08-04T05:56:47.439Z,39.70
2022-08-04T06:00:38.818Z,39.36
2022-08-04T06:07:28.429Z,39.12
2022-08-04T06:10:53.524Z,38.73
2022-08-04T06:14:18.483Z,38.35
2022-08-04T06:19:56.436Z,38.20
2022-08-04T06:21:55.459Z,38.22
2022-08-04T06:25:18.458Z,37.68
2022-08-04T06:28:41.433Z,37.66
2022-08-04T06:32:29.559Z,37.41
2022-08-04T06:36:10.556Z,37.26
2022-08-04T06:39:32.483Z,37.20
2022-08-04T06:42:54.436Z,36.99
2022-08-04T06:46:17.446Z,36.67
2022-08-04T06:49:32.455Z,36.63
2022-08-04T06:53:13.486Z,36.48
2022-08-04T06:56:35.443Z,36.42
2022-08-04T07:03:37.455Z,36.26
2022-08-04T07:06:52.470Z,36.06
2022-08-04T07:10:18.038Z,35.85
2022-08-04T07:13:45.646Z,35.77
2022-08-04T07:17:34.969Z,35.44
2022-08-04T07:21:35.476Z,35.42
2022-08-04T07:24:56.479Z,35.30
2022-08-04T07:28:18.446Z,35.17
2022-08-04T07:31:40.450Z,34.90
2022-08-04T07:35:05.505Z,34.35
2022-08-04T07:38:27.751Z,34.14
2022-08-04T07:41:49.481Z,33.92
2022-08-04T07:45:11.495Z,33.67
2022-08-04T07:48:32.534Z,33.78
2022-08-04T07:51:57.517Z,33.60
2022-08-04T07:55:19.528Z,33.20
2022-08-04T07:58:40.515Z,33.14
2022-08-04T08:02:02.497Z,32.87
2022-08-04T08:05:26.492Z,32.72
2022-08-04T08:08:51.533Z,32.52
2022-08-04T08:12:35.299Z,32.63
2022-08-04T08:15:53.522Z,32.41
2022-08-04T08:19:14.492Z,32.15
2022-08-04T08:22:35.521Z,32.13
2022-08-04T08:25:56.561Z,31.88
2022-08-04T08:29:17.503Z,32.04
2022-08-04T08:32:38.504Z,32.02
2022-08-04T08:36:35.630Z,31.63
2022-08-04T08:40:40.237Z,31.84
2022-08-04T08:44:36.306Z,32.12
2022-08-04T08:48:33.473Z,31.64
2022-08-04T08:52:09.534Z,31.26
2022-08-04T08:55:54.530Z,31.27
2022-08-04T08:59:30.475Z,31.21
2022-08-04T09:03:13.511Z,30.90
2022-08-04T09:07:02.499Z,30.93
2022-08-04T09:10:40.486Z,30.25
2022-08-04T09:14:09.486Z,29.72
2022-08-04T09:17:55.497Z,29.97
2022-08-04T09:21:23.541Z,30.16
2022-08-04T09:25:22.512Z,30.03
2022-08-04T09:28:54.317Z,29.68
2022-08-04T09:32:30.554Z,29.90
2022-08-04T09:36:00.577Z,29.69
2022-08-04T09:39:53.510Z,29.54
2022-08-04T09:43:21.517Z,29.56
2022-08-04T09:46:50.515Z,29.33
2022-08-04T09:50:15.591Z,29.37
2022-08-04T09:53:45.524Z,29.61
2022-08-04T09:57:42.518Z,28.96
2022-08-04T10:01:22.457Z,29.01
2022-08-04T10:04:47.511Z,28.84
2022-08-04T10:08:28.524Z,28.74
2022-08-04T10:12:08.568Z,28.81
2022-08-04T10:15:47.551Z,28.59
2022-08-04T10:19:23.706Z,28.24
2022-08-04T10:23:09.203Z,28.59
2022-08-04T10:26:41.507Z,28.51
2022-08-04T10:30:02.558Z,28.57
2022-08-04T10:33:33.543Z,28.34
2022-08-04T10:37:19.699Z,28.41
2022-08-04T10:41:34.723Z,28.67
2022-08-04T10:44:59.527Z,28.44
2022-08-04T10:48:36.342Z,28.58
2022-08-04T10:52:06.542Z,28.51
2022-08-04T10:56:06.530Z,28.41
2022-08-04T10:59:13.536Z,27.98
2022-08-04T11:02:45.599Z,27.80
2022-08-04T11:06:12.536Z,27.69
2022-08-04T11:09:35.577Z,27.17
2022-08-04T11:12:59.578Z,27.24
2022-08-04T11:16:28.538Z,27.35
2022-08-04T11:24:00.616Z,27.43
2022-08-04T11:27:27.570Z,27.53
2022-08-04T11:30:59.602Z,27.36
2022-08-04T11:34:35.572Z,27.04
2022-08-04T11:38:10.544Z,27.12
2022-08-04T11:41:35.584Z,27.05
2022-08-04T11:45:13.574Z,27.38
2022-08-04T11:48:42.573Z,27.66
2022-08-04T11:52:04.542Z,27.70
2022-08-04T11:55:29.586Z,27.56
2022-08-04T11:58:51.546Z,27.59
2022-08-04T12:02:31.670Z,27.46
2022-08-04T12:06:08.581Z,28.04
2022-08-04T12:09:30.700Z,27.84
2022-08-04T12:13:12.584Z,27.98
2022-08-04T12:17:00.596Z,27.79
2022-08-04T12:20:31.415Z,27.34
2022-08-04T12:24:00.765Z,27.03
2022-08-04T12:27:35.582Z,26.93
2022-08-04T12:31:11.681Z,26.86
2022-08-04T12:35:00.619Z,26.88
2022-08-04T12:38:26.591Z,26.69
2022-08-04T12:41:52.554Z,26.34
2022-08-04T12:45:20.616Z,26.06
2022-08-04T12:48:35.595Z,24.29
2022-08-04T12:52:08.495Z,22.41
2022-08-04T12:55:31.550Z,20.80
2022-08-04T12:59:18.292Z,19.30
2022-08-04T13:02:36.617Z,18.69
2022-08-04T13:05:59.572Z,18.41
2022-08-04T13:09:28.554Z,17.96
2022-08-04T13:12:51.564Z,17.78
2022-08-04T13:16:21.580Z,16.98
2022-08-04T13:19:44.583Z,16.73
2022-08-04T13:23:05.563Z,16.38
2022-08-04T13:26:42.532Z,15.98
2022-08-04T13:30:13.726Z,16.19
2022-08-04T13:33:54.594Z,15.93
2022-08-04T13:37:20.859Z,15.15
2022-08-04T13:40:43.593Z,15.25
2022-08-04T13:44:18.444Z,14.74
2022-08-04T13:47:46.601Z,15.33
2022-08-04T13:51:11.721Z,15.64
2022-08-04T13:54:32.617Z,15.57
2022-08-04T13:58:00.171Z,14.98
2022-08-04T14:02:39.604Z,14.82
2022-08-04T14:06:21.599Z,14.76
2022-08-04T14:10:04.067Z,14.27
2022-08-04T14:13:25.583Z,14.18
2022-08-04T14:16:46.594Z,13.71
2022-08-04T14:20:13.569Z,14.19
2022-08-04T14:23:34.612Z,13.89
2022-08-04T14:27:12.590Z,13.95
2022-08-04T14:30:50.581Z,13.30
2022-08-04T14:34:18.696Z,13.59
2022-08-04T14:37:48.389Z,13.18
2022-08-04T14:41:13.563Z,13.48
2022-08-04T14:44:34.601Z,14.67
2022-08-04T14:48:00.606Z,16.05
2022-08-04T14:51:36.674Z,16.78
2022-08-04T14:54:57.616Z,16.74
2022-08-04T14:58:36.510Z,15.82
2022-08-04T15:02:00.879Z,15.79
2022-08-04T15:05:55.389Z,17.26
2022-08-04T15:09:04.609Z,18.11
2022-08-04T15:12:25.595Z,18.61
2022-08-04T15:16:02.304Z,18.61
2022-08-04T15:19:28.573Z,18.12
2022-08-04T15:22:50.600Z,19.13
2022-08-04T15:26:16.604Z,19.11
2022-08-04T15:29:59.346Z,18.44
2022-08-04T15:33:22.153Z,17.92
2022-08-04T15:37:09.632Z,18.63
2022-08-04T15:40:35.600Z,18.72
2022-08-04T15:44:21.611Z,18.62
2022-08-04T15:47:42.596Z,18.80
2022-08-04T15:51:16.919Z,19.06
2022-08-04T15:54:37.645Z,18.74
2022-08-04T15:58:23.586Z,18.61
2022-08-04T16:02:10.926Z,18.57
2022-08-04T16:05:28.595Z,18.99
2022-08-04T16:09:01.630Z,19.41
2022-08-04T16:12:44.509Z,20.12
2022-08-04T16:16:08.604Z,20.24
2022-08-04T16:19:35.058Z,20.67
2022-08-04T16:23:03.665Z,20.88
2022-08-04T16:26:30.599Z,21.47
2022-08-04T16:29:56.622Z,23.12
2022-08-04T16:33:21.740Z,24.90
2022-08-04T16:37:09.629Z,25.84
2022-08-04T16:40:41.651Z,26.25
2022-08-04T16:44:02.591Z,27.54
2022-08-04T16:47:23.752Z,27.89
2022-08-04T16:50:45.646Z,28.36
2022-08-04T16:54:06.627Z,29.07
2022-08-04T16:57:28.621Z,29.78
2022-08-04T17:00:52.647Z,30.03
2022-08-04T17:04:13.596Z,30.24
2022-08-04T17:07:34.665Z,30.98
2022-08-04T17:10:59.668Z,31.22
2022-08-04T17:14:20.664Z,31.65
2022-08-04T17:18:06.464Z,32.00
2022-08-04T17:21:28.676Z,32.13
2022-08-04T17:24:51.889Z,32.67
2022-08-04T17:28:27.538Z,32.96
2022-08-04T17:31:53.315Z,32.91
2022-08-04T17:35:14.676Z,33.59
2022-08-04T17:38:35.669Z,33.73
2022-08-04T17:41:56.628Z,34.26
2022-08-04T17:49:26.654Z,34.58
2022-08-04T17:52:49.660Z,34.87
2022-08-04T17:56:11.649Z,35.44
2022-08-04T17:59:56.106Z,35.54
2022-08-04T18:03:23.163Z,35.71
2022-08-04T18:06:43.670Z,36.14
2022-08-04T18:10:32.946Z,36.33
2022-08-04T18:13:53.637Z,36.40
2022-08-04T18:17:17.871Z,36.76
2022-08-04T18:20:55.638Z,36.66
2022-08-04T18:24:20.822Z,37.05
2022-08-04T18:28:10.779Z,36.73
2022-08-04T18:31:35.668Z,37.06
2022-08-04T18:34:56.639Z,37.07
2022-08-04T18:38:26.889Z,36.94
2022-08-04T18:42:00.859Z,36.86
2022-08-04T18:45:23.650Z,36.57
2022-08-04T18:48:54.664Z,36.55
2022-08-04T18:52:17.667Z,36.45
2022-08-04T18:55:56.827Z,36.21
2022-08-04T18:59:25.699Z,36.51
2022-08-04T19:02:46.673Z,36.48
2022-08-04T19:06:08.701Z,36.50
2022-08-04T19:09:51.122Z,36.22
2022-08-04T19:13:22.326Z,36.19
2022-08-04T19:16:47.695Z,36.07
2022-08-04T19:20:15.813Z,36.19
2022-08-04T19:24:28.648Z,36.11
2022-08-04T19:27:26.711Z,35.93
2022-08-04T19:31:07.694Z,36.11
2022-08-04T19:34:32.968Z,36.05
2022-08-04T19:37:56.829Z,35.84
2022-08-04T19:41:22.737Z,36.02
2022-08-04T19:44:47.724Z,35.93
2022-08-04T19:48:18.679Z,35.96
2022-08-04T19:51:44.032Z,35.96
2022-08-04T19:55:10.598Z,36.10
2022-08-04T19:58:31.698Z,36.27
2022-08-04T20:01:53.699Z,36.20
2022-08-04T20:05:15.756Z,36.18
2022-08-04T20:08:48.409Z,36.42
2022-08-04T20:12:09.779Z,36.54
2022-08-04T20:15:30.762Z,36.82
2022-08-04T20:18:56.812Z,36.85
2022-08-04T20:26:00.670Z,37.35
2022-08-04T20:29:39.961Z,37.37
2022-08-04T20:33:01.750Z,37.28
2022-08-04T20:36:24.768Z,37.63
2022-08-04T20:39:54.968Z,37.92
2022-08-04T20:43:15.790Z,37.57
2022-08-04T20:46:36.718Z,37.82
2022-08-04T20:49:57.726Z,37.70
2022-08-04T20:53:21.708Z,37.71
2022-08-04T20:57:02.677Z,37.43
2022-08-04T21:00:29.815Z,37.33
2022-08-04T21:04:08.696Z,36.96
2022-08-04T21:07:36.434Z,37.15
2022-08-04T21:11:03.708Z,37.47
2022-08-04T21:14:29.085Z,37.73
2022-08-04T21:17:59.414Z,38.05
2022-08-04T21:21:24.780Z,38.01
2022-08-04T21:24:56.741Z,38.20
2022-08-04T21:28:20.443Z,38.79
2022-08-04T21:31:50.983Z,39.26
2022-08-04T21:35:15.186Z,39.31
2022-08-04T21:38:36.738Z,39.73
2022-08-04T21:42:28.032Z,40.01
2022-08-04T21:45:38.731Z,40.37
2022-08-04T21:48:59.785Z,40.61
2022-08-04T21:52:20.727Z,41.02
2022-08-04T21:56:05.696Z,41.27
2022-08-04T21:59:28.506Z,41.45
2022-08-04T22:02:53.358Z,41.89
2022-08-04T22:06:17.438Z,41.81
2022-08-04T22:09:41.351Z,42.25
2022-08-04T22:12:55.816Z,42.50
2022-08-04T22:16:12.734Z,42.75
2022-08-04T22:19:50.135Z,42.70
2022-08-04T22:23:19.114Z,43.05
2022-08-04T22:26:40.723Z,43.40
2022-08-04T22:30:01.718Z,43.47
2022-08-04T22:33:16.759Z,43.63
2022-08-04T22:36:39.728Z,44.21
2022-08-04T22:40:01.847Z,44.04
2022-08-04T22:43:33.640Z,44.63
2022-08-04T22:46:54.835Z,44.64
2022-08-04T22:50:26.959Z,44.80
2022-08-04T22:53:49.722Z,44.73
2022-08-04T22:57:10.866Z,44.69
2022-08-04T23:00:34.887Z,44.96
2022-08-04T23:03:56.750Z,44.97
2022-08-04T23:07:17.799Z,45.25
2022-08-04T23:10:44.755Z,45.18
2022-08-04T23:14:05.743Z,45.10
2022-08-04T23:17:27.713Z,45.23
2022-08-04T23:20:49.760Z,45.15
2022-08-04T23:24:13.748Z,45.39
2022-08-04T23:27:40.330Z,45.39
2022-08-04T23:31:04.797Z,45.78
2022-08-04T23:34:25.796Z,46.03
2022-08-04T23:37:56.100Z,46.21
2022-08-04T23:41:55.359Z,45.99
2022-08-04T23:45:07.767Z,46.24
2022-08-04T23:48:28.764Z,46.50
2022-08-04T23:51:49.887Z,46.60
2022-08-04T23:55:07.816Z,46.39
2022-08-04T23:58:36.778Z,46.90
